Time;durP1;ratioP1;P1;durP2;ratioP2;P2;SDS_P1;SDS_P2;PMS_P1;PMS_P2;Temp;Humidity;BMP_temperature;BMP_pressure;BME280_temperature;BME280_humidity;BME280_pressure;Samples;Min_cycle;Max_cycle;Signal;HPM_P1;HPM_P2
2022/03/17 00:01:24;;;;;;;23.90;15.93;;;;;;;9.86;83.04;101747.66;5243590;28;20040;-67
2022/03/17 00:03:56;;;;;;;25.25;17.55;;;;;;;9.88;82.80;101752.91;5251632;28;20032;-67
2022/03/17 00:06:27;;;;;;;23.90;17.08;;;;;;;9.87;83.12;101752.00;5247146;28;20057;-67
2022/03/17 00:09:00;;;;;;;22.00;15.85;;;;;;;9.86;82.87;101750.31;5240275;28;20663;-67
2022/03/17 00:11:32;;;;;;;23.17;16.92;;;;;;;9.87;82.82;101748.50;5245063;28;20107;-67
2022/03/17 00:14:03;;;;;;;22.17;16.25;;;;;;;9.86;83.18;101742.31;5248551;28;20521;-67
2022/03/17 00:16:35;;;;;;;21.15;16.83;;;;;;;9.82;83.19;101744.31;5253169;28;20021;-67
2022/03/17 00:19:07;;;;;;;22.50;16.88;;;;;;;9.83;83.43;101745.16;5246176;28;20029;-67
2022/03/17 00:21:39;;;;;;;25.75;16.88;;;;;;;9.80;83.59;101732.03;5244883;28;20032;-67
2022/03/17 00:24:10;;;;;;;22.58;16.85;;;;;;;9.81;83.82;101744.38;5243374;28;20053;-67
2022/03/17 00:26:41;;;;;;;22.25;16.13;;;;;;;9.80;83.72;101740.03;5247200;28;20035;-67
2022/03/17 00:29:12;;;;;;;22.73;16.38;;;;;;;9.77;84.32;101737.53;5252592;28;20033;-67
2022/03/17 00:31:44;;;;;;;23.63;17.33;;;;;;;9.75;84.72;101748.28;5255058;28;20386;-67
2022/03/17 00:34:15;;;;;;;23.48;16.95;;;;;;;9.72;84.22;101734.25;5254514;28;20421;-67
2022/03/17 00:36:47;;;;;;;24.70;17.48;;;;;;;9.71;84.57;101733.41;5252053;28;20108;-67
2022/03/17 00:39:19;;;;;;;24.77;17.20;;;;;;;9.65;84.70;101747.09;5251965;28;20112;-67
2022/03/17 00:41:51;;;;;;;22.77;16.88;;;;;;;9.64;85.45;101744.53;5247736;28;20021;-67
2022/03/17 00:44:22;;;;;;;23.25;16.92;;;;;;;9.60;85.23;101744.69;5242212;28;20356;-67
2022/03/17 00:46:54;;;;;;;23.70;15.65;;;;;;;9.58;85.32;101746.59;5242532;28;20534;-67
2022/03/17 00:49:25;;;;;;;22.73;16.80;;;;;;;9.57;85.27;101755.53;5242601;28;20037;-67
2022/03/17 00:51:57;;;;;;;23.05;17.38;;;;;;;9.53;85.38;101754.00;5246674;28;20032;-67
2022/03/17 00:54:28;;;;;;;22.70;16.75;;;;;;;9.52;85.87;101754.94;5245032;28;20042;-67
2022/03/17 00:56:59;;;;;;;25.10;17.15;;;;;;;9.50;86.38;101754.16;5235530;28;20027;-67
2022/03/17 00:59:30;;;;;;;22.95;16.95;;;;;;;9.54;86.24;101757.53;5235844;28;20447;-67
2022/03/17 01:02:04;;;;;;;26.25;18.20;;;;;;;9.52;86.33;101757.59;5241479;28;20471;-67
2022/03/17 01:04:35;;;;;;;23.13;16.55;;;;;;;9.52;86.46;101754.09;5240227;28;20044;-67
2022/03/17 01:07:07;;;;;;;22.58;16.30;;;;;;;9.50;86.54;101748.84;5235767;28;20025;-67
2022/03/17 01:09:38;;;;;;;23.65;16.60;;;;;;;9.48;86.58;101752.53;5240312;28;20302;-67
2022/03/17 01:12:09;;;;;;;24.88;17.98;;;;;;;9.52;86.69;101762.94;5241446;28;20031;-67
2022/03/17 01:14:41;;;;;;;25.80;17.67;;;;;;;9.51;86.98;101761.22;5237601;28;20057;-67
2022/03/17 01:17:12;;;;;;;24.77;17.65;;;;;;;9.51;87.23;101753.25;5242044;28;20117;-67
2022/03/17 01:19:43;;;;;;;24.88;18.20;;;;;;;9.55;86.92;101752.09;5242372;28;20036;-67
2022/03/17 01:22:16;;;;;;;25.83;17.50;;;;;;;9.56;87.51;101743.16;5253793;28;20040;-67
2022/03/17 01:24:49;;;;;;;25.02;18.17;;;;;;;9.57;87.54;101750.22;5234141;28;20025;-67
2022/03/17 01:27:23;;;;;;;23.70;17.90;;;;;;;9.56;87.97;101743.16;5251253;28;20059;-67
2022/03/17 01:29:54;;;;;;;25.15;17.75;;;;;;;9.58;87.47;101751.91;5237765;28;20505;-67
2022/03/17 01:32:25;;;;;;;24.52;17.23;;;;;;;9.61;87.71;101751.75;5240227;28;20025;-67
2022/03/17 01:34:56;;;;;;;23.88;16.90;;;;;;;9.63;88.00;101751.66;5245157;28;20025;-67
2022/03/17 01:37:28;;;;;;;24.42;17.58;;;;;;;9.64;88.28;101739.19;5237360;28;20025;-67
2022/03/17 01:39:59;;;;;;;24.35;18.27;;;;;;;9.69;87.66;101747.78;5240652;28;20033;-67
2022/03/17 01:42:30;;;;;;;28.42;18.58;;;;;;;9.68;87.74;101748.72;5242638;28;20055;-67
2022/03/17 01:45:03;;;;;;;26.38;16.70;;;;;;;9.72;87.91;101752.91;5239710;28;20028;-67
2022/03/17 01:47:36;;;;;;;28.63;18.20;;;;;;;9.72;87.87;101759.13;5238685;28;20495;-67
2022/03/17 01:50:13;;;;;;;26.52;17.52;;;;;;;9.73;88.48;101760.81;5240114;28;20033;-67
2022/03/17 01:52:45;;;;;;;27.60;17.05;;;;;;;9.75;88.73;101758.94;5239191;28;20036;-67
2022/03/17 01:55:17;;;;;;;24.35;18.15;;;;;;;9.75;89.19;101752.75;5242329;28;20042;-67
2022/03/17 01:57:49;;;;;;;26.58;17.95;;;;;;;9.74;89.84;101749.25;5250016;28;20394;-67
2022/03/17 02:00:21;;;;;;;29.52;18.02;;;;;;;9.72;89.17;101750.25;5242850;28;20032;-67
2022/03/17 02:02:52;;;;;;;26.63;18.70;;;;;;;9.75;89.82;101747.41;5238210;28;20017;-67
2022/03/17 02:05:23;;;;;;;27.38;18.30;;;;;;;9.74;90.20;101746.56;5248272;28;20025;-67
2022/03/17 02:07:54;;;;;;;26.70;17.88;;;;;;;9.69;90.69;101743.31;5246611;28;20040;-67
2022/03/17 02:10:26;;;;;;;24.50;18.30;;;;;;;9.66;90.87;101754.13;5248470;28;20089;-67
2022/03/17 02:13:09;;;;;;;28.35;18.75;;;;;;;9.74;91.24;101748.34;5248827;28;20028;-67
2022/03/17 02:15:40;;;;;;;27.27;18.73;;;;;;;9.68;91.04;101754.03;5249383;28;20045;-67
2022/03/17 02:18:16;;;;;;;27.75;18.55;;;;;;;9.62;91.48;101752.59;5239285;28;20041;-67
2022/03/17 02:20:48;;;;;;;26.73;18.52;;;;;;;9.66;91.51;101758.59;5240541;28;20033;-67
2022/03/17 02:26:09;;;;;;;25.08;17.52;;;;;;;9.82;90.80;101767.44;5240144;28;20030;-67
2022/03/17 02:28:40;;;;;;;26.65;18.40;;;;;;;9.76;90.75;101771.31;5242124;28;20029;-67
2022/03/17 02:31:12;;;;;;;27.48;18.73;;;;;;;9.74;90.88;101777.66;5237780;28;20107;-67
2022/03/17 02:33:43;;;;;;;25.85;17.70;;;;;;;9.78;91.08;101774.75;5242127;28;20668;-67
2022/03/17 02:36:15;;;;;;;25.08;18.33;;;;;;;9.75;91.65;101774.91;5249143;28;20025;-67
2022/03/17 02:38:47;;;;;;;27.60;19.13;;;;;;;9.82;91.88;101786.09;5241387;28;20467;-68
2022/03/17 02:41:24;;;;;;;25.38;18.10;;;;;;;9.79;91.88;101788.94;5243198;28;20451;-67
2022/03/17 02:43:55;;;;;;;29.70;19.05;;;;;;;9.80;92.84;101788.84;5238874;28;20040;-67
2022/03/17 02:46:28;;;;;;;31.20;20.45;;;;;;;9.84;92.95;101784.19;5246387;28;20029;-67
2022/03/17 02:48:59;;;;;;;30.25;20.80;;;;;;;9.88;94.55;101795.53;5242076;28;20120;-67
2022/03/17 02:51:31;;;;;;;30.45;20.23;;;;;;;9.89;94.53;101798.09;5251816;28;20013;-67
2022/03/17 02:54:02;;;;;;;38.35;23.65;;;;;;;9.93;97.46;101802.34;5247871;28;20141;-68
2022/03/17 02:56:34;;;;;;;39.85;26.23;;;;;;;9.98;100.00;101812.72;5240491;28;20057;-67
2022/03/17 02:59:05;;;;;;;40.55;27.77;;;;;;;10.00;100.00;101827.66;5239664;28;20035;-67
2022/03/17 03:01:36;;;;;;;45.70;28.33;;;;;;;10.00;100.00;101819.66;5240423;28;20176;-67
2022/03/17 03:04:07;;;;;;;37.55;24.67;;;;;;;10.00;100.00;101838.31;5238517;28;20017;-67
2022/03/17 03:06:39;;;;;;;38.58;25.65;;;;;;;10.01;100.00;101839.22;5243130;28;20037;-67
2022/03/17 03:09:10;;;;;;;32.00;21.48;;;;;;;9.96;100.00;101846.59;5249878;28;20034;-67
2022/03/17 03:11:41;;;;;;;31.92;21.40;;;;;;;9.84;100.00;101850.84;5240984;28;20025;-67
2022/03/17 03:14:13;;;;;;;31.30;19.80;;;;;;;9.71;100.00;101857.81;5233862;28;20041;-67
2022/03/17 03:16:44;;;;;;;26.45;18.60;;;;;;;9.66;100.00;101865.19;5233687;28;20057;-67
2022/03/17 03:19:15;;;;;;;22.75;17.30;;;;;;;9.57;100.00;101877.25;5237205;28;20397;-67
2022/03/17 03:21:47;;;;;;;23.27;17.35;;;;;;;9.44;100.00;101886.84;5239871;28;20033;-67
2022/03/17 03:24:18;;;;;;;21.23;15.88;;;;;;;9.36;100.00;101885.47;5237468;28;20032;-67
2022/03/17 03:26:49;;;;;;;21.13;15.52;;;;;;;9.29;100.00;101891.22;5240519;28;20627;-67
2022/03/17 03:29:25;;;;;;;22.95;15.77;;;;;;;9.23;100.00;101900.41;5242449;28;20083;-67
2022/03/17 03:31:59;;;;;;;22.77;16.38;;;;;;;9.14;100.00;101907.06;5244711;28;20403;-67
2022/03/17 03:34:31;;;;;;;20.85;16.05;;;;;;;9.06;100.00;101909.28;5236475;28;20041;-67
2022/03/17 03:39:54;;;;;;;22.63;17.05;;;;;;;8.93;100.00;101925.03;5239016;28;21334;-67
2022/03/17 03:42:25;;;;;;;27.05;18.65;;;;;;;8.86;100.00;101928.09;5245064;28;20034;-67
2022/03/17 03:44:57;;;;;;;24.02;18.13;;;;;;;8.81;100.00;101938.97;5238000;28;20029;-67
2022/03/17 03:47:28;;;;;;;24.02;18.70;;;;;;;8.71;100.00;101951.91;5233251;28;20111;-67
2022/03/17 03:49:59;;;;;;;27.48;18.58;;;;;;;8.66;100.00;101953.94;5235950;28;20047;-67
2022/03/17 03:52:31;;;;;;;27.50;19.20;;;;;;;8.60;100.00;101975.53;5237962;28;20028;-67
2022/03/17 03:55:02;;;;;;;25.45;18.75;;;;;;;8.54;100.00;101979.34;5237391;28;20033;-67
2022/03/17 03:57:34;;;;;;;27.40;19.48;;;;;;;8.47;100.00;101982.38;5242611;28;20039;-67
2022/03/17 04:00:20;;;;;;;26.73;19.45;;;;;;;8.40;100.00;101990.66;5244639;28;20742;-67
2022/03/17 04:02:52;;;;;;;31.15;20.40;;;;;;;8.34;100.00;101998.94;5252252;28;20488;-67
2022/03/17 04:05:27;;;;;;;32.53;21.10;;;;;;;8.27;100.00;102002.81;5247199;28;20032;-67
2022/03/17 04:07:59;;;;;;;33.67;22.08;;;;;;;8.23;100.00;102007.41;5245470;28;20034;-67
2022/03/17 04:10:30;;;;;;;35.65;22.45;;;;;;;8.20;100.00;102023.50;5244664;28;20052;-67
2022/03/17 04:13:02;;;;;;;35.00;22.40;;;;;;;8.11;100.00;102025.72;5244924;28;20450;-66
2022/03/17 04:15:34;;;;;;;35.28;22.40;;;;;;;8.16;100.00;102039.69;5250891;28;20055;-66
2022/03/17 04:18:05;;;;;;;37.13;23.05;;;;;;;8.05;100.00;102043.72;5235433;28;20479;-67
2022/03/17 04:20:36;;;;;;;38.10;22.50;;;;;;;7.99;100.00;102057.25;5246512;28;20706;-66
2022/03/17 04:23:08;;;;;;;36.17;22.42;;;;;;;7.93;100.00;102068.19;5251399;28;20075;-66
2022/03/17 04:25:39;;;;;;;39.15;22.45;;;;;;;7.86;100.00;102072.03;5233697;28;20033;-67
2022/03/17 04:28:11;;;;;;;33.15;20.98;;;;;;;7.77;100.00;102080.44;5234319;28;20057;-66
2022/03/17 04:30:42;;;;;;;29.75;18.33;;;;;;;7.66;100.00;102094.19;5236162;28;20033;-67
2022/03/17 04:33:13;;;;;;;29.65;19.35;;;;;;;7.58;100.00;102089.22;5242746;28;20421;-67
2022/03/17 04:35:45;;;;;;;30.63;19.15;;;;;;;7.58;100.00;102099.00;5232985;28;20040;-67
2022/03/17 04:38:16;;;;;;;30.15;17.77;;;;;;;7.57;100.00;102119.34;5238749;28;20430;-66
2022/03/17 04:40:49;;;;;;;27.83;17.38;;;;;;;7.55;100.00;102123.88;5239136;28;20463;-66
2022/03/17 04:43:21;;;;;;;32.35;19.42;;;;;;;7.52;100.00;102136.44;5231170;28;20032;-66
2022/03/17 04:45:52;;;;;;;34.83;18.10;;;;;;;7.51;100.00;102130.25;5233106;28;20025;-67
2022/03/17 04:48:23;;;;;;;29.48;17.15;;;;;;;7.49;100.00;102132.13;5235498;28;20021;-66
2022/03/17 04:50:55;;;;;;;27.58;15.52;;;;;;;7.43;100.00;102135.88;5238808;28;20039;-67
2022/03/17 04:53:32;;;;;;;25.58;15.05;;;;;;;7.42;100.00;102143.91;5238227;28;20047;-67
2022/03/17 04:56:05;;;;;;;27.00;14.65;;;;;;;7.39;100.00;102158.19;5235301;28;20025;-67
2022/03/17 04:58:38;;;;;;;22.70;14.05;;;;;;;7.38;100.00;102159.13;5233505;28;20104;-67
2022/03/17 05:01:12;;;;;;;24.95;14.93;;;;;;;7.34;100.00;102168.13;5233094;28;20029;-67
2022/03/17 05:03:43;;;;;;;27.27;15.68;;;;;;;7.36;100.00;102184.00;5233380;28;20029;-67
2022/03/17 05:06:16;;;;;;;29.00;16.08;;;;;;;7.32;100.00;102183.28;5239348;28;20036;-67
2022/03/17 05:08:47;;;;;;;31.27;16.45;;;;;;;7.31;100.00;102196.63;5243820;28;20024;-67
2022/03/17 05:11:19;;;;;;;30.45;17.20;;;;;;;7.31;100.00;102209.91;5242358;28;20025;-66
2022/03/17 05:13:51;;;;;;;28.98;17.02;;;;;;;7.30;100.00;102210.81;5244658;28;21234;-66
2022/03/17 05:16:23;;;;;;;27.30;15.82;;;;;;;7.26;100.00;102228.66;5234364;28;20110;-67
2022/03/17 05:18:54;;;;;;;28.33;14.88;;;;;;;7.23;100.00;102234.97;5234002;28;20033;-67
2022/03/17 05:21:25;;;;;;;24.30;12.90;;;;;;;7.21;100.00;102255.41;5233903;28;20063;-67
2022/03/17 05:23:56;;;;;;;22.17;11.02;;;;;;;7.14;100.00;102259.22;5232046;28;20658;-67
2022/03/17 05:26:28;;;;;;;18.92;9.55;;;;;;;7.11;100.00;102253.16;5234572;28;20762;-67
2022/03/17 05:28:59;;;;;;;18.80;9.45;;;;;;;7.08;100.00;102262.13;5236079;28;20037;-67
2022/03/17 05:31:30;;;;;;;18.92;8.95;;;;;;;7.05;100.00;102252.47;5238667;28;20037;-67
2022/03/17 05:34:02;;;;;;;14.00;8.30;;;;;;;7.05;100.00;102264.88;5239471;28;20730;-67
2022/03/17 05:36:33;;;;;;;17.15;8.30;;;;;;;7.04;100.00;102279.94;5241875;28;20027;-67
2022/03/17 05:39:04;;;;;;;16.95;8.13;;;;;;;7.03;100.00;102290.59;5239843;28;20068;-67
2022/03/17 05:41:36;;;;;;;14.43;7.82;;;;;;;7.05;100.00;102294.06;5241601;28;20463;-67
2022/03/17 05:44:08;;;;;;;17.55;7.43;;;;;;;7.03;100.00;102298.56;5246093;28;20500;-67
2022/03/17 05:46:39;;;;;;;13.50;6.90;;;;;;;7.03;99.34;102311.84;5248754;28;21812;-68
2022/03/17 05:49:10;;;;;;;13.13;6.78;;;;;;;7.04;100.00;102313.59;5248758;28;20255;-68
2022/03/17 05:51:42;;;;;;;14.75;6.57;;;;;;;7.02;98.86;102316.28;5253682;28;20025;-67
2022/03/17 05:54:13;;;;;;;15.57;6.65;;;;;;;7.03;98.46;102325.09;5247109;28;20041;-67
2022/03/17 05:56:44;;;;;;;14.23;7.07;;;;;;;7.03;98.32;102330.41;5217172;28;20040;-68
2022/03/17 05:59:16;;;;;;;9.82;6.70;;;;;;;7.02;98.22;102342.81;5245796;28;20471;-67
2022/03/17 06:01:47;;;;;;;12.13;7.68;;;;;;;7.02;98.45;102336.66;5251415;28;20064;-67
2022/03/17 06:04:18;;;;;;;16.85;7.57;;;;;;;7.02;99.24;102355.25;5250427;28;20470;-67
2022/03/17 06:06:50;;;;;;;12.68;7.05;;;;;;;6.98;98.28;102359.78;5247567;28;20227;-67
2022/03/17 06:09:21;;;;;;;12.50;6.90;;;;;;;6.98;99.72;102364.22;5241272;28;20037;-67
2022/03/17 06:11:55;;;;;;;15.43;6.80;;;;;;;6.91;99.96;102370.69;5243238;28;20055;-67
2022/03/17 06:14:27;;;;;;;15.38;6.70;;;;;;;6.86;100.00;102385.00;5256802;28;20053;-67
2022/03/17 06:16:59;;;;;;;9.70;6.18;;;;;;;6.85;100.00;102388.56;5254933;28;20028;-67
2022/03/17 06:19:30;;;;;;;16.98;8.25;;;;;;;6.87;100.00;102388.50;5252070;28;20021;-67
2022/03/17 06:22:02;;;;;;;11.95;7.18;;;;;;;6.86;100.00;102402.66;5254251;28;20051;-67
2022/03/17 06:24:33;;;;;;;13.50;6.70;;;;;;;6.80;100.00;102408.19;5252285;28;20032;-67
2022/03/17 06:27:04;;;;;;;14.50;7.07;;;;;;;6.79;100.00;102417.97;5251938;28;20091;-67
2022/03/17 06:29:35;;;;;;;13.02;6.90;;;;;;;6.75;100.00;102416.34;5249250;28;20028;-67
2022/03/17 06:32:08;;;;;;;13.68;6.95;;;;;;;6.76;100.00;102425.16;5251677;28;20019;-67
2022/03/17 06:34:39;;;;;;;12.77;6.85;;;;;;;6.77;100.00;102418.91;5246905;28;20032;-67
2022/03/17 06:37:10;;;;;;;15.65;5.82;;;;;;;6.81;100.00;102425.88;5245634;28;20039;-67
2022/03/17 06:39:42;;;;;;;11.48;6.22;;;;;;;6.83;100.00;102437.28;5278457;28;20028;-67
2022/03/17 06:42:13;;;;;;;10.15;5.10;;;;;;;6.86;100.00;102447.78;5253415;28;20032;-67
2022/03/17 06:44:44;;;;;;;14.73;5.95;;;;;;;6.84;100.00;102450.47;5246317;28;20035;-67
2022/03/17 06:47:15;;;;;;;11.20;5.30;;;;;;;6.86;100.00;102463.69;5246374;28;20491;-67
2022/03/17 06:49:47;;;;;;;11.05;5.25;;;;;;;6.84;100.00;102469.03;5244035;28;20467;-67
2022/03/17 06:52:18;;;;;;;14.27;5.82;;;;;;;6.86;100.00;102472.53;5248929;28;20467;-68
2022/03/17 06:54:51;;;;;;;13.73;5.80;;;;;;;6.89;100.00;102471.56;5247915;28;20037;-67
2022/03/17 06:57:22;;;;;;;14.65;5.85;;;;;;;6.90;99.83;102486.53;5253256;28;20077;-67
2022/03/17 06:59:54;;;;;;;13.05;5.25;;;;;;;6.92;98.96;102494.47;5248307;28;20486;-68
2022/03/17 07:02:25;;;;;;;12.75;3.70;;;;;;;6.93;97.65;102490.91;5250733;28;20083;-68
2022/03/17 07:04:56;;;;;;;8.55;3.53;;;;;;;6.94;97.42;102498.81;5251857;28;20139;-67
2022/03/17 07:07:28;;;;;;;8.77;2.67;;;;;;;6.97;95.97;102508.44;5254737;28;20021;-67
2022/03/17 07:10:00;;;;;;;9.27;2.88;;;;;;;6.96;94.38;102507.59;5249639;28;20124;-67
2022/03/17 07:12:31;;;;;;;12.52;2.65;;;;;;;7.01;95.31;102510.91;5249370;28;20025;-67
2022/03/17 07:15:04;;;;;;;6.38;2.55;;;;;;;7.04;94.95;102509.97;5247407;28;20086;-67
2022/03/17 07:17:40;;;;;;;8.95;2.50;;;;;;;7.00;93.30;102525.13;5238232;28;20517;-68
2022/03/17 07:20:17;;;;;;;9.45;2.50;;;;;;;7.03;93.56;102522.34;5248923;28;20037;-67
2022/03/17 07:22:49;;;;;;;7.63;2.20;;;;;;;7.03;93.10;102529.47;5252258;28;20041;-67
2022/03/17 07:25:21;;;;;;;6.28;2.40;;;;;;;7.02;93.49;102533.91;5248094;28;20032;-68
2022/03/17 07:27:52;;;;;;;9.13;2.40;;;;;;;6.99;94.15;102543.75;5252275;28;20028;-67
2022/03/17 07:30:24;;;;;;;9.73;3.03;;;;;;;6.95;94.86;102547.44;5244178;28;20032;-68
2022/03/17 07:32:57;;;;;;;9.90;2.70;;;;;;;6.90;94.95;102555.53;5256522;28;20052;-67
2022/03/17 07:35:29;;;;;;;8.32;2.45;;;;;;;6.83;95.87;102560.19;5253556;28;20025;-67
2022/03/17 07:38:02;;;;;;;10.68;3.03;;;;;;;6.80;96.65;102570.88;5256669;28;20423;-67
2022/03/17 07:40:33;;;;;;;10.53;2.67;;;;;;;6.84;95.94;102574.31;5250875;28;20378;-68
2022/03/17 07:43:05;;;;;;;6.30;2.03;;;;;;;6.87;96.07;102583.03;5253786;28;20034;-67
2022/03/17 07:45:36;;;;;;;7.63;2.65;;;;;;;6.90;96.31;102590.03;5249901;28;20092;-67
2022/03/17 07:48:07;;;;;;;8.90;2.15;;;;;;;6.96;96.13;102591.59;5257363;28;20033;-67
2022/03/17 07:50:39;;;;;;;11.60;3.35;;;;;;;7.02;96.21;102591.44;5251204;28;20040;-67
2022/03/17 07:53:11;;;;;;;8.55;2.13;;;;;;;7.13;96.41;102589.25;5252818;28;20025;-67
2022/03/17 07:55:43;;;;;;;15.73;2.95;;;;;;;7.09;94.24;102603.56;5250126;28;20552;-67
2022/03/17 07:58:15;;;;;;;7.43;1.83;;;;;;;7.12;93.76;102614.06;5254057;28;20474;-68
2022/03/17 08:00:48;;;;;;;11.10;1.88;;;;;;;7.18;93.42;102616.53;5247686;28;20021;-68
2022/03/17 08:03:20;;;;;;;10.88;1.88;;;;;;;7.17;91.63;102614.81;5252455;28;20394;-67
2022/03/17 08:05:52;;;;;;;11.82;2.13;;;;;;;7.26;92.04;102617.13;5253574;28;20091;-67
2022/03/17 08:08:23;;;;;;;12.05;1.90;;;;;;;7.32;91.95;102624.00;5253232;28;20045;-68
2022/03/17 08:10:57;;;;;;;12.93;2.17;;;;;;;7.34;90.39;102639.91;5249890;28;20534;-67
2022/03/17 08:13:28;;;;;;;10.93;2.03;;;;;;;7.35;89.86;102636.34;5251985;28;20037;-67
2022/03/17 08:16:01;;;;;;;9.98;1.70;;;;;;;7.39;90.17;102645.94;5253381;28;20086;-68
2022/03/17 08:18:34;;;;;;;11.82;1.70;;;;;;;7.43;89.11;102644.91;5253519;28;20021;-68
2022/03/17 08:21:05;;;;;;;11.27;2.03;;;;;;;7.55;89.97;102641.81;5250162;28;20043;-68
2022/03/17 08:23:36;;;;;;;8.20;1.75;;;;;;;7.65;89.17;102650.31;5248002;28;20029;-68
2022/03/17 08:26:08;;;;;;;12.75;2.13;;;;;;;7.72;87.80;102672.25;5248043;28;20016;-68
2022/03/17 08:28:39;;;;;;;10.88;1.90;;;;;;;7.61;82.52;102672.59;5251264;28;20120;-68
2022/03/17 08:31:11;;;;;;;9.50;1.63;;;;;;;7.68;82.35;102682.09;5242491;28;20029;-68
2022/03/17 08:33:42;;;;;;;8.30;1.63;;;;;;;7.71;80.58;102676.69;5242949;28;20123;-68
2022/03/17 08:36:13;;;;;;;9.65;1.88;;;;;;;7.74;79.92;102687.19;5248590;28;20520;-68
2022/03/17 08:38:45;;;;;;;9.73;1.52;;;;;;;7.85;80.35;102692.16;5250108;28;20020;-67
2022/03/17 08:41:16;;;;;;;9.13;2.13;;;;;;;7.82;77.64;102703.75;5247868;28;20037;-68
2022/03/17 08:43:48;;;;;;;9.00;1.50;;;;;;;7.84;77.75;102711.66;5246915;28;20025;-68
2022/03/17 08:49:19;;;;;;;8.60;1.33;;;;;;;7.96;77.35;102723.66;5250982;28;20033;-68
2022/03/17 08:51:53;;;;;;;9.80;2.08;;;;;;;7.95;76.87;102724.56;5251603;28;20033;-68
2022/03/17 08:54:28;;;;;;;9.45;1.90;;;;;;;7.95;76.21;102714.81;5250224;28;20029;-68
2022/03/17 08:56:59;;;;;;;12.68;1.70;;;;;;;7.98;75.97;102725.34;5250920;28;20471;-68
2022/03/17 08:59:33;;;;;;;11.43;1.75;;;;;;;8.10;76.60;102720.50;5252075;28;20029;-68
2022/03/17 09:02:07;;;;;;;7.10;1.27;;;;;;;8.18;75.60;102732.59;5244148;28;20021;-68
2022/03/17 09:04:38;;;;;;;15.43;2.80;;;;;;;8.23;74.52;102727.13;5250236;28;20029;-68
2022/03/17 09:07:11;;;;;;;9.27;1.20;;;;;;;8.17;74.35;102730.88;5255856;28;20083;-68
2022/03/17 09:09:42;;;;;;;11.02;1.52;;;;;;;8.25;75.17;102741.22;5251667;28;20029;-68
2022/03/17 09:12:14;;;;;;;13.07;1.67;;;;;;;8.21;74.54;102732.50;5252012;28;20032;-68
2022/03/17 09:14:47;;;;;;;11.77;2.08;;;;;;;8.15;73.42;102750.44;5253420;28;20550;-68
2022/03/17 09:17:18;;;;;;;12.57;1.60;;;;;;;8.07;74.15;102756.03;5249996;28;20036;-68
2022/03/17 09:19:50;;;;;;;7.07;1.00;;;;;;;8.02;74.46;102760.66;5257776;28;20025;-68
2022/03/17 09:22:21;;;;;;;12.38;2.00;;;;;;;8.01;73.98;102767.75;5254456;28;20040;-68
2022/03/17 09:24:52;;;;;;;9.18;1.40;;;;;;;7.99;74.88;102774.91;5250408;28;20029;-68
2022/03/17 09:27:23;;;;;;;10.18;1.50;;;;;;;8.07;74.42;102773.78;5250499;28;20430;-68
2022/03/17 09:29:55;;;;;;;8.40;1.50;;;;;;;8.17;75.17;102778.72;5250796;28;20025;-68
2022/03/17 09:32:26;;;;;;;10.32;1.85;;;;;;;8.18;74.52;102769.81;5255992;28;20044;-68
2022/03/17 09:34:59;;;;;;;12.27;1.63;;;;;;;8.24;73.28;102769.59;5253552;28;20107;-68
2022/03/17 09:37:30;;;;;;;6.60;1.48;;;;;;;8.36;73.94;102780.72;5254281;28;20026;-68
2022/03/17 09:40:01;;;;;;;10.35;1.38;;;;;;;8.42;74.12;102789.38;5248493;28;20364;-68
2022/03/17 09:42:34;;;;;;;8.65;1.73;;;;;;;8.48;72.25;102800.75;5255038;28;20545;-68
2022/03/17 09:45:07;;;;;;;11.95;1.40;;;;;;;8.43;71.39;102804.41;5253045;28;20033;-68
2022/03/17 09:47:41;;;;;;;9.30;1.57;;;;;;;8.39;71.44;102788.59;5256579;28;20056;-68
2022/03/17 09:50:14;;;;;;;12.05;2.10;;;;;;;8.53;72.44;102794.31;5253868;28;20478;-68
2022/03/17 09:52:47;;;;;;;10.10;1.42;;;;;;;8.52;71.95;102807.69;5252573;28;20479;-68
2022/03/17 09:55:19;;;;;;;9.07;1.55;;;;;;;8.65;73.57;102803.66;5250630;28;20111;-68
2022/03/17 09:57:51;;;;;;;9.13;1.35;;;;;;;8.63;71.95;102811.69;5254058;28;20036;-68
2022/03/17 10:00:23;;;;;;;7.55;1.65;;;;;;;8.70;73.02;102820.28;5249875;28;20029;-68
2022/03/17 10:02:54;;;;;;;7.45;1.75;;;;;;;8.71;71.61;102835.34;5252624;28;20123;-68
2022/03/17 10:05:25;;;;;;;9.27;1.30;;;;;;;8.70;71.30;102843.38;5254435;28;20024;-68
2022/03/17 10:07:56;;;;;;;8.55;1.63;;;;;;;8.66;71.49;102845.28;5253591;28;20091;-68
2022/03/17 10:10:38;;;;;;;10.10;1.67;;;;;;;8.67;70.66;102836.41;5251329;28;20508;-68
2022/03/17 10:13:21;;;;;;;8.02;2.08;;;;;;;8.78;70.96;102846.63;5252480;28;20407;-68
2022/03/17 10:16:20;;;;;;;10.85;1.83;;;;;;;8.85;70.15;102852.63;5253519;28;20041;-68
2022/03/17 10:18:57;;;;;;;9.18;1.88;;;;;;;8.93;70.33;102861.16;5252678;28;20028;-68
2022/03/17 10:21:28;;;;;;;7.43;1.75;;;;;;;8.95;70.41;102859.31;5254138;28;20375;-68
2022/03/17 10:24:08;;;;;;;9.77;1.55;;;;;;;9.06;71.12;102865.13;5253008;28;20036;-68
2022/03/17 10:26:42;;;;;;;9.27;1.90;;;;;;;9.05;70.08;102873.16;5255001;28;20040;-68
2022/03/17 10:29:15;;;;;;;10.82;2.03;;;;;;;9.02;69.03;102871.50;5250880;28;20056;-68
2022/03/17 10:31:55;;;;;;;11.52;1.65;;;;;;;9.05;69.60;102884.69;5252829;28;20158;-68
2022/03/17 10:34:33;;;;;;;10.15;1.58;;;;;;;9.14;69.73;102887.00;5256460;28;20059;-68
2022/03/17 10:37:12;;;;;;;10.15;1.52;;;;;;;9.25;70.29;102889.25;5255399;28;20055;-68
2022/03/17 10:40:08;;;;;;;9.63;1.70;;;;;;;9.32;70.13;102897.88;5248485;28;20025;-68
2022/03/17 10:42:39;;;;;;;9.55;2.45;;;;;;;9.13;68.70;102901.25;5254921;28;20114;-68
2022/03/17 10:45:11;;;;;;;8.10;1.60;;;;;;;9.17;68.78;102902.00;5246675;28;20466;-68
2022/03/17 10:47:45;;;;;;;8.35;1.52;;;;;;;9.23;70.13;102897.31;5254789;28;20083;-68
2022/03/17 10:50:22;;;;;;;9.80;1.95;;;;;;;9.31;70.79;102914.81;5253446;28;20041;-68
2022/03/17 10:53:00;;;;;;;10.88;1.80;;;;;;;9.25;69.17;102910.56;5249511;28;20115;-68
2022/03/17 10:55:36;;;;;;;13.27;2.35;;;;;;;9.19;69.80;102926.78;5249046;28;20116;-68
2022/03/17 10:58:19;;;;;;;11.20;2.47;;;;;;;9.12;70.13;102919.94;5250550;28;20036;-68
2022/03/17 11:00:52;;;;;;;11.32;1.40;;;;;;;9.01;70.42;102931.88;5247926;28;20025;-68
2022/03/17 11:03:24;;;;;;;7.73;1.87;;;;;;;8.92;70.99;102937.53;5246256;28;20502;-68
2022/03/17 11:05:56;;;;;;;8.48;2.00;;;;;;;8.94;70.30;102946.31;5249513;28;20287;-68
2022/03/17 11:08:27;;;;;;;10.35;1.73;;;;;;;8.97;69.88;102953.31;5248035;28;20035;-68
2022/03/17 11:10:59;;;;;;;3.40;0.90;;;;;;;8.89;67.23;102960.72;5247181;28;20021;-68
2022/03/17 11:13:31;;;;;;;7.45;1.50;;;;;;;8.91;68.55;102956.19;5251262;28;20082;-68
2022/03/17 11:16:08;;;;;;;4.28;1.20;;;;;;;9.00;67.16;102961.19;5256149;28;20020;-68
2022/03/17 11:18:40;;;;;;;6.97;1.30;;;;;;;8.99;65.98;102956.78;5250712;28;20045;-68
2022/03/17 11:21:25;;;;;;;7.28;1.38;;;;;;;9.08;66.08;102971.59;5257056;28;20032;-68
2022/03/17 11:24:06;;;;;;;7.68;1.60;;;;;;;9.17;66.97;102965.94;5255675;28;20033;-68
2022/03/17 11:26:39;;;;;;;9.93;2.05;;;;;;;9.17;64.87;102976.59;5251706;28;20033;-68
2022/03/17 11:29:13;;;;;;;9.33;1.93;;;;;;;9.22;65.16;102966.59;5256945;28;20029;-68
2022/03/17 11:31:58;;;;;;;5.93;1.50;;;;;;;9.25;65.90;102976.31;5255469;28;20264;-68
2022/03/17 11:34:38;;;;;;;5.45;1.50;;;;;;;9.10;64.04;102975.06;5256750;28;20033;-68
2022/03/17 11:37:27;;;;;;;10.88;2.30;;;;;;;9.26;66.59;102976.22;5254605;28;20035;-68
2022/03/17 11:40:04;;;;;;;8.07;1.75;;;;;;;9.30;64.36;102983.19;5250707;28;20112;-68
2022/03/17 11:42:40;;;;;;;7.28;1.80;;;;;;;9.44;64.64;102979.16;5249424;28;20049;-68
2022/03/17 11:45:14;;;;;;;8.65;1.80;;;;;;;9.58;65.08;102984.81;5248354;28;20044;-68
2022/03/17 11:47:59;;;;;;;;;;;;;;;9.72;64.81;102986.94;5248644;28;20479;-68
2022/03/17 11:50:42;;;;;;;7.93;2.08;;;;;;;9.66;64.67;102995.19;5250042;28;19924;-68
2022/03/17 11:53:22;;;;;;;9.05;2.67;;;;;;;9.66;64.11;102998.72;5250433;28;20084;-68
2022/03/17 11:55:55;;;;;;;7.13;2.30;;;;;;;9.72;64.42;102994.94;5254133;28;20560;-68